sensor_id;sensor_type;location;lat;lon;timestamp;pressure;altitude;pressure_sealevel;temperature;humidity
64886;BME280;51514;52.206;5.114;2023-03-13T00:01:08;100171.09;;;9.95;100.00
64886;BME280;51514;52.206;5.114;2023-03-13T00:03:34;100166.50;;;9.95;100.00
64886;BME280;51514;52.206;5.114;2023-03-13T00:05:59;100164.66;;;9.96;100.00
64886;BME280;51514;52.206;5.114;2023-03-13T00:08:28;100160.94;;;9.97;100.00
64886;BME280;51514;52.206;5.114;2023-03-13T00:10:54;100155.41;;;9.98;100.00
64886;BME280;51514;52.206;5.114;2023-03-13T00:13:19;100148.16;;;9.99;100.00
64886;BME280;51514;52.206;5.114;2023-03-13T00:15:44;100145.13;;;10.02;100.00
64886;BME280;51514;52.206;5.114;2023-03-13T00:18:10;100138.22;;;9.99;100.00
64886;BME280;51514;52.206;5.114;2023-03-13T00:20:35;100136.22;;;10.01;100.00
64886;BME280;51514;52.206;5.114;2023-03-13T00:23:00;100133.69;;;10.00;100.00
64886;BME280;51514;52.206;5.114;2023-03-13T00:25:26;100123.94;;;9.99;100.00
64886;BME280;51514;52.206;5.114;2023-03-13T00:27:51;100119.53;;;9.98;100.00
64886;BME280;51514;52.206;5.114;2023-03-13T00:30:17;100100.88;;;9.96;100.00
64886;BME280;51514;52.206;5.114;2023-03-13T00:32:43;100095.47;;;9.96;100.00
64886;BME280;51514;52.206;5.114;2023-03-13T00:35:10;100087.94;;;9.92;100.00
64886;BME280;51514;52.206;5.114;2023-03-13T00:37:36;100078.34;;;9.89;100.00
64886;BME280;51514;52.206;5.114;2023-03-13T00:40:02;100070.44;;;9.87;100.00
64886;BME280;51514;52.206;5.114;2023-03-13T00:42:28;100071.44;;;9.86;100.00
64886;BME280;51514;52.206;5.114;2023-03-13T00:44:53;100074.13;;;9.86;100.00
64886;BME280;51514;52.206;5.114;2023-03-13T00:47:19;100059.84;;;9.86;100.00
64886;BME280;51514;52.206;5.114;2023-03-13T00:49:44;100035.44;;;9.87;100.00
64886;BME280;51514;52.206;5.114;2023-03-13T00:52:09;100037.47;;;9.85;100.00
64886;BME280;51514;52.206;5.114;2023-03-13T00:54:35;100029.03;;;9.88;100.00
64886;BME280;51514;52.206;5.114;2023-03-13T00:57:00;100019.94;;;9.89;100.00
64886;BME280;51514;52.206;5.114;2023-03-13T00:59:25;100013.56;;;9.91;100.00
64886;BME280;51514;52.206;5.114;2023-03-13T01:01:51;100015.06;;;9.93;100.00
64886;BME280;51514;52.206;5.114;2023-03-13T01:04:17;100008.00;;;9.92;100.00
64886;BME280;51514;52.206;5.114;2023-03-13T01:06:43;100018.59;;;9.94;100.00
64886;BME280;51514;52.206;5.114;2023-03-13T01:09:12;99998.53;;;9.96;100.00
64886;BME280;51514;52.206;5.114;2023-03-13T01:11:39;99987.75;;;9.96;100.00
64886;BME280;51514;52.206;5.114;2023-03-13T01:14:13;99987.75;;;9.96;100.00
64886;BME280;51514;52.206;5.114;2023-03-13T01:16:39;99986.75;;;9.97;100.00
64886;BME280;51514;52.206;5.114;2023-03-13T01:19:08;99978.84;;;9.96;100.00
64886;BME280;51514;52.206;5.114;2023-03-13T01:21:34;99983.22;;;9.97;100.00
64886;BME280;51514;52.206;5.114;2023-03-13T01:23:59;99964.03;;;10.00;100.00
64886;BME280;51514;52.206;5.114;2023-03-13T01:26:26;99958.97;;;10.05;100.00
64886;BME280;51514;52.206;5.114;2023-03-13T01:28:51;99953.38;;;10.06;100.00
64886;BME280;51514;52.206;5.114;2023-03-13T01:31:25;99942.44;;;10.08;100.00
64886;BME280;51514;52.206;5.114;2023-03-13T01:33:54;99929.13;;;10.06;100.00
64886;BME280;51514;52.206;5.114;2023-03-13T01:36:20;99923.22;;;10.11;100.00
64886;BME280;51514;52.206;5.114;2023-03-13T01:38:51;99915.97;;;10.11;100.00
64886;BME280;51514;52.206;5.114;2023-03-13T01:41:17;99921.69;;;10.16;100.00
64886;BME280;51514;52.206;5.114;2023-03-13T01:43:44;99921.34;;;10.19;100.00
64886;BME280;51514;52.206;5.114;2023-03-13T01:51:32;99902.47;;;10.19;100.00
64886;BME280;51514;52.206;5.114;2023-03-13T01:54:08;99895.38;;;10.27;100.00
64886;BME280;51514;52.206;5.114;2023-03-13T01:59:07;99872.44;;;10.31;100.00
64886;BME280;51514;52.206;5.114;2023-03-13T02:01:34;99878.47;;;10.33;100.00
64886;BME280;51514;52.206;5.114;2023-03-13T02:04:00;99861.13;;;10.35;100.00
64886;BME280;51514;52.206;5.114;2023-03-13T02:06:28;99846.25;;;10.39;100.00
64886;BME280;51514;52.206;5.114;2023-03-13T02:08:58;99844.88;;;10.43;100.00
64886;BME280;51514;52.206;5.114;2023-03-13T02:14:02;99826.31;;;10.48;100.00
64886;BME280;51514;52.206;5.114;2023-03-13T02:16:29;99820.91;;;10.48;100.00
64886;BME280;51514;52.206;5.114;2023-03-13T02:18:55;99817.00;;;10.51;100.00
64886;BME280;51514;52.206;5.114;2023-03-13T02:21:41;99815.13;;;10.51;100.00
64886;BME280;51514;52.206;5.114;2023-03-13T02:24:28;99814.41;;;10.57;100.00
64886;BME280;51514;52.206;5.114;2023-03-13T02:26:56;99808.28;;;10.64;100.00
64886;BME280;51514;52.206;5.114;2023-03-13T02:29:23;99811.63;;;10.66;100.00
64886;BME280;51514;52.206;5.114;2023-03-13T02:31:49;99794.44;;;10.67;100.00
64886;BME280;51514;52.206;5.114;2023-03-13T02:34:19;99799.00;;;10.66;100.00
64886;BME280;51514;52.206;5.114;2023-03-13T02:36:46;99797.63;;;10.70;100.00
64886;BME280;51514;52.206;5.114;2023-03-13T02:39:13;99789.31;;;10.72;100.00
64886;BME280;51514;52.206;5.114;2023-03-13T02:41:42;99779.19;;;10.74;100.00
64886;BME280;51514;52.206;5.114;2023-03-13T02:44:09;99788.59;;;10.78;100.00
64886;BME280;51514;52.206;5.114;2023-03-13T02:46:48;99789.25;;;10.80;100.00
64886;BME280;51514;52.206;5.114;2023-03-13T02:49:27;99778.28;;;10.81;100.00
64886;BME280;51514;52.206;5.114;2023-03-13T02:51:59;99772.50;;;10.84;100.00
64886;BME280;51514;52.206;5.114;2023-03-13T02:54:33;99772.97;;;10.88;100.00
64886;BME280;51514;52.206;5.114;2023-03-13T02:57:02;99789.16;;;10.88;100.00
64886;BME280;51514;52.206;5.114;2023-03-13T02:59:28;99795.00;;;10.91;100.00
64886;BME280;51514;52.206;5.114;2023-03-13T03:01:53;99787.00;;;10.98;100.00
64886;BME280;51514;52.206;5.114;2023-03-13T03:04:20;99778.53;;;11.01;100.00
64886;BME280;51514;52.206;5.114;2023-03-13T03:06:46;99793.97;;;11.07;100.00
64886;BME280;51514;52.206;5.114;2023-03-13T03:09:12;99780.94;;;11.11;100.00
64886;BME280;51514;52.206;5.114;2023-03-13T03:11:38;99779.16;;;11.18;100.00
64886;BME280;51514;52.206;5.114;2023-03-13T03:14:04;99777.94;;;11.20;100.00
64886;BME280;51514;52.206;5.114;2023-03-13T03:16:29;99781.13;;;11.24;100.00
64886;BME280;51514;52.206;5.114;2023-03-13T03:18:55;99779.69;;;11.28;100.00
64886;BME280;51514;52.206;5.114;2023-03-13T03:21:20;99756.72;;;11.32;100.00
64886;BME280;51514;52.206;5.114;2023-03-13T03:23:48;99764.88;;;11.39;100.00
64886;BME280;51514;52.206;5.114;2023-03-13T03:26:13;99756.59;;;11.40;100.00
64886;BME280;51514;52.206;5.114;2023-03-13T03:28:38;99751.66;;;11.44;100.00
64886;BME280;51514;52.206;5.114;2023-03-13T03:31:05;99756.03;;;11.45;100.00
64886;BME280;51514;52.206;5.114;2023-03-13T03:33:30;99763.94;;;11.46;100.00
64886;BME280;51514;52.206;5.114;2023-03-13T03:36:00;99757.09;;;11.50;100.00
64886;BME280;51514;52.206;5.114;2023-03-13T03:38:26;99758.13;;;11.49;100.00
64886;BME280;51514;52.206;5.114;2023-03-13T03:40:51;99753.84;;;11.55;100.00
64886;BME280;51514;52.206;5.114;2023-03-13T03:43:16;99747.00;;;11.59;100.00
64886;BME280;51514;52.206;5.114;2023-03-13T03:45:42;99743.94;;;11.62;100.00
64886;BME280;51514;52.206;5.114;2023-03-13T03:48:07;99739.00;;;11.65;100.00
64886;BME280;51514;52.206;5.114;2023-03-13T03:50:32;99736.03;;;11.60;100.00
64886;BME280;51514;52.206;5.114;2023-03-13T03:52:58;99728.00;;;11.67;100.00
64886;BME280;51514;52.206;5.114;2023-03-13T03:55:23;99724.66;;;11.65;100.00
64886;BME280;51514;52.206;5.114;2023-03-13T03:57:48;99719.44;;;11.63;100.00
64886;BME280;51514;52.206;5.114;2023-03-13T04:00:14;99726.34;;;11.66;100.00
64886;BME280;51514;52.206;5.114;2023-03-13T04:02:40;99720.16;;;11.72;100.00
64886;BME280;51514;52.206;5.114;2023-03-13T04:05:06;99722.84;;;11.72;100.00
64886;BME280;51514;52.206;5.114;2023-03-13T04:07:31;99717.84;;;11.69;100.00
64886;BME280;51514;52.206;5.114;2023-03-13T04:09:57;99718.47;;;11.71;100.00
64886;BME280;51514;52.206;5.114;2023-03-13T04:12:22;99716.41;;;11.73;100.00
64886;BME280;51514;52.206;5.114;2023-03-13T04:14:48;99719.13;;;11.73;100.00
64886;BME280;51514;52.206;5.114;2023-03-13T04:17:13;99711.03;;;11.73;100.00
64886;BME280;51514;52.206;5.114;2023-03-13T04:19:39;99719.13;;;11.73;100.00
64886;BME280;51514;52.206;5.114;2023-03-13T04:22:04;99706.94;;;11.77;100.00
64886;BME280;51514;52.206;5.114;2023-03-13T04:24:29;99696.75;;;11.79;100.00
64886;BME280;51514;52.206;5.114;2023-03-13T04:26:55;99692.19;;;11.80;100.00
64886;BME280;51514;52.206;5.114;2023-03-13T04:29:20;99688.94;;;11.84;100.00
64886;BME280;51514;52.206;5.114;2023-03-13T04:31:46;99688.94;;;11.84;100.00
64886;BME280;51514;52.206;5.114;2023-03-13T04:34:11;99686.22;;;11.84;100.00
64886;BME280;51514;52.206;5.114;2023-03-13T04:36:37;99696.84;;;11.86;100.00
64886;BME280;51514;52.206;5.114;2023-03-13T04:39:02;99689.31;;;11.81;100.00
64886;BME280;51514;52.206;5.114;2023-03-13T04:41:28;99683.53;;;11.84;100.00
64886;BME280;51514;52.206;5.114;2023-03-13T04:43:53;99678.13;;;11.84;100.00
64886;BME280;51514;52.206;5.114;2023-03-13T04:46:18;99689.31;;;11.81;100.00
64886;BME280;51514;52.206;5.114;2023-03-13T04:48:44;99692.28;;;11.86;100.00
64886;BME280;51514;52.206;5.114;2023-03-13T04:51:10;99693.53;;;11.90;100.00
64886;BME280;51514;52.206;5.114;2023-03-13T04:53:36;99685.66;;;11.89;100.00
64886;BME280;51514;52.206;5.114;2023-03-13T04:56:01;99688.53;;;11.87;100.00
64886;BME280;51514;52.206;5.114;2023-03-13T04:58:27;99675.88;;;11.88;100.00
64886;BME280;51514;52.206;5.114;2023-03-13T05:00:52;99671.50;;;11.87;100.00
64886;BME280;51514;52.206;5.114;2023-03-13T05:03:19;99681.09;;;11.89;100.00
64886;BME280;51514;52.206;5.114;2023-03-13T05:05:44;99680.66;;;11.92;100.00
64886;BME280;51514;52.206;5.114;2023-03-13T05:08:09;99676.94;;;11.93;100.00
64886;BME280;51514;52.206;5.114;2023-03-13T05:10:35;99665.75;;;11.96;100.00
64886;BME280;51514;52.206;5.114;2023-03-13T05:13:01;99672.84;;;11.97;100.00
64886;BME280;51514;52.206;5.114;2023-03-13T05:15:26;99662.03;;;11.97;100.00
64886;BME280;51514;52.206;5.114;2023-03-13T05:17:51;99665.38;;;11.99;100.00
64886;BME280;51514;52.206;5.114;2023-03-13T05:20:17;99652.88;;;11.98;100.00
64886;BME280;51514;52.206;5.114;2023-03-13T05:22:42;99649.16;;;11.99;100.00
64886;BME280;51514;52.206;5.114;2023-03-13T05:25:08;99654.16;;;12.02;100.00
64886;BME280;51514;52.206;5.114;2023-03-13T05:27:33;99647.06;;;12.01;100.00
64886;BME280;51514;52.206;5.114;2023-03-13T05:29:58;99646.03;;;12.02;100.00
64886;BME280;51514;52.206;5.114;2023-03-13T05:32:24;99625.53;;;12.08;100.00
64886;BME280;51514;52.206;5.114;2023-03-13T05:34:49;99637.59;;;12.12;100.00
64886;BME280;51514;52.206;5.114;2023-03-13T05:37:14;99633.00;;;12.13;100.00
64886;BME280;51514;52.206;5.114;2023-03-13T05:39:40;99634.28;;;12.17;100.00
64886;BME280;51514;52.206;5.114;2023-03-13T05:42:05;99627.88;;;12.18;100.00
64886;BME280;51514;52.206;5.114;2023-03-13T05:44:30;99629.91;;;12.16;100.00
64886;BME280;51514;52.206;5.114;2023-03-13T05:46:56;99624.78;;;12.21;100.00
64886;BME280;51514;52.206;5.114;2023-03-13T05:49:21;99628.09;;;12.23;100.00
64886;BME280;51514;52.206;5.114;2023-03-13T05:51:47;99624.34;;;12.24;100.00
64886;BME280;51514;52.206;5.114;2023-03-13T05:54:12;99615.41;;;12.23;100.00
64886;BME280;51514;52.206;5.114;2023-03-13T05:56:37;99631.44;;;12.25;100.00
64886;BME280;51514;52.206;5.114;2023-03-13T05:59:03;99612.75;;;12.30;100.00
64886;BME280;51514;52.206;5.114;2023-03-13T06:01:28;99614.00;;;12.34;100.00
64886;BME280;51514;52.206;5.114;2023-03-13T06:03:53;99618.19;;;12.36;100.00
64886;BME280;51514;52.206;5.114;2023-03-13T06:06:19;99608.59;;;12.34;100.00
64886;BME280;51514;52.206;5.114;2023-03-13T06:08:44;99600.94;;;12.37;100.00
64886;BME280;51514;52.206;5.114;2023-03-13T06:11:10;99607.81;;;12.40;100.00
64886;BME280;51514;52.206;5.114;2023-03-13T06:13:35;99612.19;;;12.41;100.00
64886;BME280;51514;52.206;5.114;2023-03-13T06:16:00;99600.53;;;12.40;100.00
64886;BME280;51514;52.206;5.114;2023-03-13T06:18:26;99604.09;;;12.41;100.00
64886;BME280;51514;52.206;5.114;2023-03-13T06:20:57;99598.69;;;12.41;100.00
64886;BME280;51514;52.206;5.114;2023-03-13T06:23:22;99607.41;;;12.43;100.00
64886;BME280;51514;52.206;5.114;2023-03-13T06:25:48;99604.91;;;12.41;100.00
64886;BME280;51514;52.206;5.114;2023-03-13T06:28:14;99608.03;;;12.45;100.00
64886;BME280;51514;52.206;5.114;2023-03-13T06:30:40;99602.00;;;12.43;100.00
64886;BME280;51514;52.206;5.114;2023-03-13T06:33:05;99614.47;;;12.44;100.00
64886;BME280;51514;52.206;5.114;2023-03-13T06:35:30;99608.88;;;12.46;100.00
64886;BME280;51514;52.206;5.114;2023-03-13T06:37:56;99609.50;;;12.48;100.00
64886;BME280;51514;52.206;5.114;2023-03-13T06:40:21;99616.59;;;12.49;100.00
64886;BME280;51514;52.206;5.114;2023-03-13T06:42:47;99615.34;;;12.51;100.00
64886;BME280;51514;52.206;5.114;2023-03-13T06:45:12;99605.97;;;12.47;100.00
64886;BME280;51514;52.206;5.114;2023-03-13T06:47:37;99621.16;;;12.48;100.00
64886;BME280;51514;52.206;5.114;2023-03-13T06:50:03;99628.22;;;12.49;100.00
64886;BME280;51514;52.206;5.114;2023-03-13T06:52:28;99627.41;;;12.49;100.00
64886;BME280;51514;52.206;5.114;2023-03-13T06:54:54;99639.88;;;12.50;100.00
64886;BME280;51514;52.206;5.114;2023-03-13T06:57:19;99626.97;;;12.45;100.00
64886;BME280;51514;52.206;5.114;2023-03-13T06:59:44;99619.84;;;12.37;100.00
64886;BME280;51514;52.206;5.114;2023-03-13T07:02:13;99629.19;;;12.35;100.00
64886;BME280;51514;52.206;5.114;2023-03-13T07:04:39;99632.50;;;12.30;100.00
64886;BME280;51514;52.206;5.114;2023-03-13T07:07:04;99630.19;;;12.27;100.00
64886;BME280;51514;52.206;5.114;2023-03-13T07:09:30;99630.56;;;12.18;100.00
64886;BME280;51514;52.206;5.114;2023-03-13T07:11:55;99633.47;;;12.16;100.00
64886;BME280;51514;52.206;5.114;2023-03-13T07:14:24;99630.94;;;12.15;100.00
64886;BME280;51514;52.206;5.114;2023-03-13T07:16:49;99638.41;;;12.13;100.00
64886;BME280;51514;52.206;5.114;2023-03-13T07:19:15;99638.00;;;12.09;100.00
64886;BME280;51514;52.206;5.114;2023-03-13T07:21:40;99645.06;;;12.10;100.00
64886;BME280;51514;52.206;5.114;2023-03-13T07:24:06;99635.09;;;12.11;100.00
64886;BME280;51514;52.206;5.114;2023-03-13T07:26:31;99642.16;;;12.12;100.00
64886;BME280;51514;52.206;5.114;2023-03-13T07:28:57;99636.75;;;12.12;100.00
64886;BME280;51514;52.206;5.114;2023-03-13T07:31:22;99632.78;;;12.07;100.00
64886;BME280;51514;52.206;5.114;2023-03-13T07:33:52;99631.31;;;12.05;100.00
64886;BME280;51514;52.206;5.114;2023-03-13T07:36:20;99646.28;;;12.07;100.00
64886;BME280;51514;52.206;5.114;2023-03-13T07:38:47;99649.38;;;12.04;100.00
64886;BME280;51514;52.206;5.114;2023-03-13T07:41:13;99645.63;;;11.99;100.00
64886;BME280;51514;52.206;5.114;2023-03-13T07:43:38;99632.94;;;11.99;100.00
64886;BME280;51514;52.206;5.114;2023-03-13T07:46:05;99633.97;;;11.98;100.00
64886;BME280;51514;52.206;5.114;2023-03-13T07:48:36;99665.78;;;12.03;100.00
64886;BME280;51514;52.206;5.114;2023-03-13T07:51:03;99659.56;;;12.02;100.00
64886;BME280;51514;52.206;5.114;2023-03-13T07:53:29;99655.81;;;12.03;100.00
64886;BME280;51514;52.206;5.114;2023-03-13T07:55:57;99644.78;;;11.98;100.00
64886;BME280;51514;52.206;5.114;2023-03-13T07:58:24;99654.97;;;12.03;100.00
64886;BME280;51514;52.206;5.114;2023-03-13T08:00:50;99657.09;;;12.07;100.00
64886;BME280;51514;52.206;5.114;2023-03-13T08:03:15;99644.84;;;12.12;100.00
64886;BME280;51514;52.206;5.114;2023-03-13T08:05:41;99629.75;;;12.24;100.00
64886;BME280;51514;52.206;5.114;2023-03-13T08:08:06;99618.56;;;12.27;100.00
64886;BME280;51514;52.206;5.114;2023-03-13T08:10:32;99621.50;;;12.32;100.00
64886;BME280;51514;52.206;5.114;2023-03-13T08:12:57;99617.81;;;12.46;100.00
64886;BME280;51514;52.206;5.114;2023-03-13T08:15:22;99608.28;;;12.57;100.00
64886;BME280;51514;52.206;5.114;2023-03-13T08:17:51;99616.84;;;12.67;100.00
64886;BME280;51514;52.206;5.114;2023-03-13T08:20:17;99616.03;;;12.66;100.00
64886;BME280;51514;52.206;5.114;2023-03-13T08:22:45;99611.25;;;12.68;100.00
64886;BME280;51514;52.206;5.114;2023-03-13T08:25:12;99602.94;;;12.70;100.00
64886;BME280;51514;52.206;5.114;2023-03-13T08:27:37;99595.91;;;12.75;100.00
64886;BME280;51514;52.206;5.114;2023-03-13T08:30:03;99605.66;;;12.76;100.00
64886;BME280;51514;52.206;5.114;2023-03-13T08:32:32;99602.53;;;12.73;100.00
64886;BME280;51514;52.206;5.114;2023-03-13T08:34:57;99591.28;;;12.69;100.00
64886;BME280;51514;52.206;5.114;2023-03-13T08:37:22;99602.50;;;12.66;100.00
64886;BME280;51514;52.206;5.114;2023-03-13T08:39:47;99603.34;;;12.67;100.00
64886;BME280;51514;52.206;5.114;2023-03-13T08:42:14;99581.09;;;12.65;100.00
64886;BME280;51514;52.206;5.114;2023-03-13T08:44:39;99588.56;;;12.63;100.00
64886;BME280;51514;52.206;5.114;2023-03-13T08:47:06;99587.94;;;12.61;100.00
64886;BME280;51514;52.206;5.114;2023-03-13T08:49:31;99572.53;;;12.61;100.00
64886;BME280;51514;52.206;5.114;2023-03-13T08:51:56;99575.44;;;12.60;100.00
64886;BME280;51514;52.206;5.114;2023-03-13T08:54:22;99587.94;;;12.61;100.00
64886;BME280;51514;52.206;5.114;2023-03-13T08:56:47;99576.72;;;12.70;100.00
64886;BME280;51514;52.206;5.114;2023-03-13T08:59:13;99583.41;;;12.81;100.00
64886;BME280;51514;52.206;5.114;2023-03-13T09:01:40;99565.56;;;12.87;100.00
64886;BME280;51514;52.206;5.114;2023-03-13T09:04:06;99573.91;;;13.11;100.00
64886;BME280;51514;52.206;5.114;2023-03-13T09:06:36;99566.06;;;13.49;99.89
64886;BME280;51514;52.206;5.114;2023-03-13T09:09:02;99551.63;;;13.82;95.38
64886;BME280;51514;52.206;5.114;2023-03-13T09:11:28;99544.72;;;13.99;93.55
64886;BME280;51514;52.206;5.114;2023-03-13T09:13:54;99543.66;;;14.00;91.85
64886;BME280;51514;52.206;5.114;2023-03-13T09:16:25;99525.13;;;13.91;91.31
64886;BME280;51514;52.206;5.114;2023-03-13T09:18:51;99550.59;;;13.83;91.67
64886;BME280;51514;52.206;5.114;2023-03-13T09:21:18;99551.03;;;13.73;92.44
64886;BME280;51514;52.206;5.114;2023-03-13T09:23:44;99536.03;;;13.64;92.30
64886;BME280;51514;52.206;5.114;2023-03-13T09:26:11;99534.78;;;13.60;91.29
64886;BME280;51514;52.206;5.114;2023-03-13T09:28:37;99536.03;;;13.58;90.54
64886;BME280;51514;52.206;5.114;2023-03-13T09:31:09;99536.88;;;13.58;90.00
64886;BME280;51514;52.206;5.114;2023-03-13T09:33:35;99492.28;;;13.54;88.46
64886;BME280;51514;52.206;5.114;2023-03-13T09:36:00;99514.97;;;13.66;88.44
64886;BME280;51514;52.206;5.114;2023-03-13T09:38:26;99513.94;;;13.67;88.68
64886;BME280;51514;52.206;5.114;2023-03-13T09:40:52;99505.59;;;13.69;88.96
64886;BME280;51514;52.206;5.114;2023-03-13T09:49:46;99486.41;;;14.35;88.40
64886;BME280;51514;52.206;5.114;2023-03-13T09:52:17;99467.28;;;14.61;87.53
64886;BME280;51514;52.206;5.114;2023-03-13T09:55:11;99468.09;;;14.61;85.38
64886;BME280;51514;52.206;5.114;2023-03-13T10:00:13;99456.88;;;14.58;85.57
64886;BME280;51514;52.206;5.114;2023-03-13T10:02:45;99463.91;;;14.66;85.29
64886;BME280;51514;52.206;5.114;2023-03-13T10:05:20;99459.06;;;14.74;85.85
64886;BME280;51514;52.206;5.114;2023-03-13T10:07:46;99444.22;;;14.77;84.65
64886;BME280;51514;52.206;5.114;2023-03-13T10:10:27;99462.09;;;14.84;85.68
64886;BME280;51514;52.206;5.114;2023-03-13T10:13:03;99443.31;;;14.83;85.46
64886;BME280;51514;52.206;5.114;2023-03-13T10:15:58;99442.88;;;14.92;84.96
64886;BME280;51514;52.206;5.114;2023-03-13T10:18:25;99452.59;;;15.00;84.50
64886;BME280;51514;52.206;5.114;2023-03-13T10:20:58;99454.59;;;15.11;83.65
64886;BME280;51514;52.206;5.114;2023-03-13T10:25:51;99442.41;;;15.20;80.72
64886;BME280;51514;52.206;5.114;2023-03-13T10:28:17;99444.25;;;15.45;81.27
64886;BME280;51514;52.206;5.114;2023-03-13T10:31:20;99424.31;;;15.51;80.32
64886;BME280;51514;52.206;5.114;2023-03-13T10:33:39;99431.22;;;15.53;79.73
64886;BME280;51514;52.206;5.114;2023-03-13T10:36:07;99448.47;;;15.65;79.10
64886;BME280;51514;52.206;5.114;2023-03-13T10:38:44;99433.91;;;15.78;78.97
64886;BME280;51514;52.206;5.114;2023-03-13T10:41:25;99418.84;;;15.94;75.01
64886;BME280;51514;52.206;5.114;2023-03-13T10:43:53;99425.78;;;16.08;73.72
64886;BME280;51514;52.206;5.114;2023-03-13T10:46:24;99441.81;;;15.98;73.23
64886;BME280;51514;52.206;5.114;2023-03-13T10:48:53;99428.69;;;15.77;73.69
64886;BME280;51514;52.206;5.114;2023-03-13T10:51:21;99433.44;;;15.63;74.61
64886;BME280;51514;52.206;5.114;2023-03-13T10:53:47;99426.78;;;15.77;75.53
64886;BME280;51514;52.206;5.114;2023-03-13T10:56:15;99426.09;;;15.82;75.02
64886;BME280;51514;52.206;5.114;2023-03-13T10:58:46;99421.88;;;15.86;74.21
64886;BME280;51514;52.206;5.114;2023-03-13T11:01:30;99416.56;;;16.09;72.25
64886;BME280;51514;52.206;5.114;2023-03-13T11:04:39;99429.66;;;16.30;70.08
64886;BME280;51514;52.206;5.114;2023-03-13T11:07:15;99426.09;;;16.30;68.91
64886;BME280;51514;52.206;5.114;2023-03-13T11:09:56;99408.47;;;16.21;66.85
64886;BME280;51514;52.206;5.114;2023-03-13T11:12:22;99416.50;;;16.27;69.06
64886;BME280;51514;52.206;5.114;2023-03-13T11:14:55;99401.53;;;16.36;67.73
64886;BME280;51514;52.206;5.114;2023-03-13T11:17:35;99394.78;;;16.39;67.93
64886;BME280;51514;52.206;5.114;2023-03-13T11:20:06;99409.47;;;16.38;67.28
64886;BME280;51514;52.206;5.114;2023-03-13T11:38:34;99378.47;;;16.81;66.08
64886;BME280;51514;52.206;5.114;2023-03-13T11:43:55;99402.28;;;16.85;63.11
64886;BME280;51514;52.206;5.114;2023-03-13T11:49:27;99398.75;;;17.08;63.50
64886;BME280;51514;52.206;5.114;2023-03-13T11:57:33;99406.53;;;16.81;62.58
64886;BME280;51514;52.206;5.114;2023-03-13T12:02:32;99406.94;;;16.66;63.51
64886;BME280;51514;52.206;5.114;2023-03-13T12:05:03;99397.97;;;16.77;62.02
64886;BME280;51514;52.206;5.114;2023-03-13T12:07:52;99402.97;;;16.92;61.45
64886;BME280;51514;52.206;5.114;2023-03-13T12:10:26;99394.19;;;16.78;59.15
64886;BME280;51514;52.206;5.114;2023-03-13T12:13:16;99388.53;;;16.92;60.98
64886;BME280;51514;52.206;5.114;2023-03-13T12:15:47;99396.34;;;17.00;60.24
64886;BME280;51514;52.206;5.114;2023-03-13T12:18:19;99387.25;;;16.94;58.92
64886;BME280;51514;52.206;5.114;2023-03-13T12:20:54;99375.06;;;16.97;59.59
64886;BME280;51514;52.206;5.114;2023-03-13T12:23:42;99363.81;;;16.93;58.91
64886;BME280;51514;52.206;5.114;2023-03-13T12:26:34;99357.16;;;16.89;60.27
64886;BME280;51514;52.206;5.114;2023-03-13T12:34:41;99367.88;;;16.61;59.58
64886;BME280;51514;52.206;5.114;2023-03-13T12:39:42;99367.97;;;16.42;59.47
64886;BME280;51514;52.206;5.114;2023-03-13T12:44:57;99368.69;;;16.50;61.16
64886;BME280;51514;52.206;5.114;2023-03-13T12:47:48;99357.91;;;16.43;62.25
64886;BME280;51514;52.206;5.114;2023-03-13T12:50:37;99354.91;;;16.21;61.01
64886;BME280;51514;52.206;5.114;2023-03-13T12:53:35;99350.75;;;16.19;61.59
64886;BME280;51514;52.206;5.114;2023-03-13T12:59:31;99336.34;;;16.30;61.40
64886;BME280;51514;52.206;5.114;2023-03-13T13:02:02;99336.22;;;16.36;60.94
64886;BME280;51514;52.206;5.114;2023-03-13T13:04:43;99335.63;;;16.34;61.09
64886;BME280;51514;52.206;5.114;2023-03-13T13:07:27;99336.50;;;16.47;60.22
64886;BME280;51514;52.206;5.114;2023-03-13T13:12:28;99312.84;;;16.59;61.07
64886;BME280;51514;52.206;5.114;2023-03-13T13:14:57;99309.66;;;16.50;60.86
64886;BME280;51514;52.206;5.114;2023-03-13T13:17:40;99310.03;;;16.54;60.41
64886;BME280;51514;52.206;5.114;2023-03-13T13:25:43;99307.16;;;16.49;61.42
64886;BME280;51514;52.206;5.114;2023-03-13T13:30:53;99294.56;;;16.24;58.05
64886;BME280;51514;52.206;5.114;2023-03-13T13:38:48;99311.69;;;16.13;59.39
64886;BME280;51514;52.206;5.114;2023-03-13T13:43:41;99309.34;;;16.17;58.86
64886;BME280;51514;52.206;5.114;2023-03-13T13:48:38;99312.03;;;16.05;58.21
64886;BME280;51514;52.206;5.114;2023-03-13T13:54:00;99312.03;;;16.05;57.30
64886;BME280;51514;52.206;5.114;2023-03-13T13:58:58;99327.63;;;15.98;57.38
64886;BME280;51514;52.206;5.114;2023-03-13T14:01:24;99322.38;;;15.85;56.95
64886;BME280;51514;52.206;5.114;2023-03-13T14:03:53;99322.09;;;15.75;57.66
64886;BME280;51514;52.206;5.114;2023-03-13T14:06:26;99314.16;;;15.73;57.80
64886;BME280;51514;52.206;5.114;2023-03-13T14:08:58;99303.06;;;15.75;58.12
64886;BME280;51514;52.206;5.114;2023-03-13T14:11:33;99322.09;;;15.75;58.53
64886;BME280;51514;52.206;5.114;2023-03-13T14:16:38;99294.53;;;15.71;58.35
64886;BME280;51514;52.206;5.114;2023-03-13T14:19:20;99311.53;;;15.66;58.26
64886;BME280;51514;52.206;5.114;2023-03-13T14:21:46;99295.81;;;15.50;58.88
64886;BME280;51514;52.206;5.114;2023-03-13T14:24:13;99281.84;;;15.47;58.64
64886;BME280;51514;52.206;5.114;2023-03-13T14:26:42;99286.09;;;15.43;59.75
64886;BME280;51514;52.206;5.114;2023-03-13T14:29:15;99277.50;;;15.46;60.17
64886;BME280;51514;52.206;5.114;2023-03-13T14:31:49;99272.31;;;15.44;58.86
64886;BME280;51514;52.206;5.114;2023-03-13T14:34:15;99268.97;;;15.42;59.50